sensor_id;sensor_type;location;lat;lon;timestamp;pressure;altitude;pressure_sealevel;temperature;humidity
50682;BME280;36779;52.168;20.878;2023-02-19T00:00:33;99946.40;;;1.81;76.56
50682;BME280;36779;52.168;20.878;2023-02-19T00:03:21;99944.38;;;1.84;76.50
50682;BME280;36779;52.168;20.878;2023-02-19T00:05:50;99934.65;;;1.85;76.62
50682;BME280;36779;52.168;20.878;2023-02-19T00:08:21;99931.06;;;1.86;76.52
50682;BME280;36779;52.168;20.878;2023-02-19T00:10:51;99937.35;;;1.86;76.55
50682;BME280;36779;52.168;20.878;2023-02-19T00:13:20;99936.20;;;1.88;76.55
50682;BME280;36779;52.168;20.878;2023-02-19T00:15:49;99933.73;;;1.88;76.50
50682;BME280;36779;52.168;20.878;2023-02-19T00:18:19;99935.52;;;1.90;76.46
50682;BME280;36779;52.168;20.878;2023-02-19T00:20:48;99935.11;;;1.93;76.49
50682;BME280;36779;52.168;20.878;2023-02-19T00:23:19;99935.43;;;1.96;76.55
50682;BME280;36779;52.168;20.878;2023-02-19T00:25:49;99940.05;;;2.00;76.51
50682;BME280;36779;52.168;20.878;2023-02-19T00:28:22;99938.52;;;2.03;76.48
50682;BME280;36779;52.168;20.878;2023-02-19T00:30:52;99933.58;;;2.08;76.55
50682;BME280;36779;52.168;20.878;2023-02-19T00:33:21;99934.17;;;2.12;76.48
50682;BME280;36779;52.168;20.878;2023-02-19T00:35:54;99936.48;;;2.14;76.49
50682;BME280;36779;52.168;20.878;2023-02-19T00:38:24;99935.27;;;2.16;76.55
50682;BME280;36779;52.168;20.878;2023-02-19T00:40:54;99930.04;;;2.16;76.50
50682;BME280;36779;52.168;20.878;2023-02-19T00:43:24;99926.65;;;2.14;76.51
50682;BME280;36779;52.168;20.878;2023-02-19T00:45:54;99926.30;;;2.14;76.55
50682;BME280;36779;52.168;20.878;2023-02-19T00:48:23;99929.83;;;2.14;76.43
50682;BME280;36779;52.168;20.878;2023-02-19T00:50:55;99930.05;;;2.16;76.53
50682;BME280;36779;52.168;20.878;2023-02-19T00:53:24;99934.83;;;2.17;76.49
50682;BME280;36779;52.168;20.878;2023-02-19T00:55:54;99934.83;;;2.20;76.54
50682;BME280;36779;52.168;20.878;2023-02-19T00:58:23;99940.17;;;2.23;76.60
50682;BME280;36779;52.168;20.878;2023-02-19T01:00:53;99942.14;;;2.27;76.59
50682;BME280;36779;52.168;20.878;2023-02-19T01:03:23;99940.34;;;2.29;76.60
50682;BME280;36779;52.168;20.878;2023-02-19T01:05:55;99940.27;;;2.28;76.53
50682;BME280;36779;52.168;20.878;2023-02-19T01:08:24;99941.30;;;2.28;76.58
50682;BME280;36779;52.168;20.878;2023-02-19T01:10:53;99937.36;;;2.27;76.55
50682;BME280;36779;52.168;20.878;2023-02-19T01:13:23;99934.42;;;2.25;76.59
50682;BME280;36779;52.168;20.878;2023-02-19T01:15:55;99930.48;;;2.24;76.47
50682;BME280;36779;52.168;20.878;2023-02-19T01:18:31;99926.60;;;2.24;76.50
50682;BME280;36779;52.168;20.878;2023-02-19T01:21:05;99927.66;;;2.26;76.46
50682;BME280;36779;52.168;20.878;2023-02-19T01:23:35;99922.55;;;2.28;76.63
50682;BME280;36779;52.168;20.878;2023-02-19T01:26:09;99921.00;;;2.30;76.52
50682;BME280;36779;52.168;20.878;2023-02-19T01:28:39;99921.02;;;2.32;76.47
50682;BME280;36779;52.168;20.878;2023-02-19T01:31:12;99921.46;;;2.33;76.57
50682;BME280;36779;52.168;20.878;2023-02-19T01:33:44;99915.88;;;2.33;76.42
50682;BME280;36779;52.168;20.878;2023-02-19T01:36:15;99918.41;;;2.32;76.50
50682;BME280;36779;52.168;20.878;2023-02-19T01:38:44;99918.08;;;2.32;76.51
50682;BME280;36779;52.168;20.878;2023-02-19T01:41:15;99923.05;;;2.31;76.56
50682;BME280;36779;52.168;20.878;2023-02-19T01:44:00;99931.39;;;2.30;76.55
50682;BME280;36779;52.168;20.878;2023-02-19T01:46:31;99932.23;;;2.30;76.44
50682;BME280;36779;52.168;20.878;2023-02-19T01:49:05;99930.40;;;2.31;76.57
50682;BME280;36779;52.168;20.878;2023-02-19T01:51:37;99931.28;;;2.33;76.54
50682;BME280;36779;52.168;20.878;2023-02-19T01:54:09;99928.55;;;2.34;76.55
50682;BME280;36779;52.168;20.878;2023-02-19T01:56:41;99924.58;;;2.38;76.54
50682;BME280;36779;52.168;20.878;2023-02-19T01:59:14;99922.55;;;2.40;76.43
50682;BME280;36779;52.168;20.878;2023-02-19T02:01:44;99924.48;;;2.40;76.49
50682;BME280;36779;52.168;20.878;2023-02-19T02:04:15;99927.07;;;2.38;76.52
50682;BME280;36779;52.168;20.878;2023-02-19T02:06:48;99926.82;;;2.36;76.54
50682;BME280;36779;52.168;20.878;2023-02-19T02:09:23;99928.31;;;2.33;76.54
50682;BME280;36779;52.168;20.878;2023-02-19T02:12:12;99931.26;;;2.29;76.42
50682;BME280;36779;52.168;20.878;2023-02-19T02:14:43;99925.35;;;2.26;76.42
50682;BME280;36779;52.168;20.878;2023-02-19T02:17:21;99925.83;;;2.25;76.35
50682;BME280;36779;52.168;20.878;2023-02-19T02:20:05;99928.27;;;2.25;76.32
50682;BME280;36779;52.168;20.878;2023-02-19T02:22:43;99923.65;;;2.26;76.45
50682;BME280;36779;52.168;20.878;2023-02-19T02:28:21;99922.27;;;2.32;76.50
50682;BME280;36779;52.168;20.878;2023-02-19T02:30:59;99922.15;;;2.33;76.35
50682;BME280;36779;52.168;20.878;2023-02-19T02:33:34;99924.31;;;2.33;76.38
50682;BME280;36779;52.168;20.878;2023-02-19T02:36:07;99929.48;;;2.32;76.50
50682;BME280;36779;52.168;20.878;2023-02-19T02:38:40;99936.57;;;2.28;76.44
50682;BME280;36779;52.168;20.878;2023-02-19T02:41:11;99940.13;;;2.23;76.34
50682;BME280;36779;52.168;20.878;2023-02-19T02:43:42;99939.46;;;2.23;76.49
50682;BME280;36779;52.168;20.878;2023-02-19T02:46:12;99936.64;;;2.23;76.33
50682;BME280;36779;52.168;20.878;2023-02-19T02:48:46;99929.66;;;2.25;76.39
50682;BME280;36779;52.168;20.878;2023-02-19T02:51:25;99926.21;;;2.26;76.43
50682;BME280;36779;52.168;20.878;2023-02-19T02:54:04;99924.96;;;2.29;76.42
50682;BME280;36779;52.168;20.878;2023-02-19T02:56:55;99925.42;;;2.30;76.30
50682;BME280;36779;52.168;20.878;2023-02-19T02:59:29;99925.64;;;2.31;76.43
50682;BME280;36779;52.168;20.878;2023-02-19T03:02:01;99920.23;;;2.31;76.46
50682;BME280;36779;52.168;20.878;2023-02-19T03:04:47;99910.40;;;2.29;76.40
50682;BME280;36779;52.168;20.878;2023-02-19T03:07:42;99905.20;;;2.26;76.49
50682;BME280;36779;52.168;20.878;2023-02-19T03:10:17;99908.39;;;2.21;76.51
50682;BME280;36779;52.168;20.878;2023-02-19T03:12:50;99907.74;;;2.18;76.51
50682;BME280;36779;52.168;20.878;2023-02-19T03:15:45;99908.88;;;2.15;76.41
50682;BME280;36779;52.168;20.878;2023-02-19T03:18:35;99913.56;;;2.14;76.37
50682;BME280;36779;52.168;20.878;2023-02-19T03:21:25;99914.14;;;2.12;76.38
50682;BME280;36779;52.168;20.878;2023-02-19T03:23:56;99914.77;;;2.11;76.40
50682;BME280;36779;52.168;20.878;2023-02-19T03:26:45;99918.06;;;2.11;76.37
50682;BME280;36779;52.168;20.878;2023-02-19T03:29:23;99923.78;;;2.13;76.48
50682;BME280;36779;52.168;20.878;2023-02-19T03:32:02;99918.06;;;2.11;76.46
50682;BME280;36779;52.168;20.878;2023-02-19T03:34:37;99918.64;;;2.11;76.56
50682;BME280;36779;52.168;20.878;2023-02-19T03:37:12;99915.32;;;2.09;76.44
50682;BME280;36779;52.168;20.878;2023-02-19T03:39:44;99909.74;;;2.06;76.46
50682;BME280;36779;52.168;20.878;2023-02-19T03:42:21;99905.66;;;2.02;76.42
50682;BME280;36779;52.168;20.878;2023-02-19T03:45:04;99901.28;;;1.98;76.39
50682;BME280;36779;52.168;20.878;2023-02-19T03:47:44;99901.17;;;1.94;76.29
50682;BME280;36779;52.168;20.878;2023-02-19T03:50:20;99900.54;;;1.92;76.34
50682;BME280;36779;52.168;20.878;2023-02-19T03:52:56;99894.65;;;1.91;76.31
50682;BME280;36779;52.168;20.878;2023-02-19T03:55:30;99887.02;;;1.89;76.28
50682;BME280;36779;52.168;20.878;2023-02-19T03:58:06;99885.39;;;1.88;76.33
50682;BME280;36779;52.168;20.878;2023-02-19T04:00:39;99892.36;;;1.86;76.34
50682;BME280;36779;52.168;20.878;2023-02-19T04:03:17;99884.77;;;1.84;76.33
50682;BME280;36779;52.168;20.878;2023-02-19T04:05:50;99879.63;;;1.81;76.26
50682;BME280;36779;52.168;20.878;2023-02-19T04:08:22;99885.91;;;1.77;76.32
50682;BME280;36779;52.168;20.878;2023-02-19T04:10:57;99892.46;;;1.73;76.28
50682;BME280;36779;52.168;20.878;2023-02-19T04:13:30;99889.27;;;1.70;76.33
50682;BME280;36779;52.168;20.878;2023-02-19T04:16:05;99884.07;;;1.64;76.31
50682;BME280;36779;52.168;20.878;2023-02-19T04:18:38;99882.48;;;1.59;76.31
50682;BME280;36779;52.168;20.878;2023-02-19T04:21:10;99875.05;;;1.58;76.29
50682;BME280;36779;52.168;20.878;2023-02-19T04:23:42;99872.37;;;1.57;76.16
50682;BME280;36779;52.168;20.878;2023-02-19T04:26:13;99875.88;;;1.57;76.27
50682;BME280;36779;52.168;20.878;2023-02-19T04:28:46;99867.73;;;1.58;76.38
50682;BME280;36779;52.168;20.878;2023-02-19T04:31:15;99867.45;;;1.59;76.33
50682;BME280;36779;52.168;20.878;2023-02-19T04:33:44;99867.13;;;1.59;76.38
50682;BME280;36779;52.168;20.878;2023-02-19T04:36:13;99863.80;;;1.56;76.24
50682;BME280;36779;52.168;20.878;2023-02-19T04:38:42;99865.56;;;1.54;76.36
50682;BME280;36779;52.168;20.878;2023-02-19T04:41:10;99863.87;;;1.51;76.39
50682;BME280;36779;52.168;20.878;2023-02-19T04:43:40;99860.06;;;1.48;76.33
50682;BME280;36779;52.168;20.878;2023-02-19T04:46:10;99857.44;;;1.46;76.36
50682;BME280;36779;52.168;20.878;2023-02-19T04:48:57;99865.42;;;1.45;76.25
50682;BME280;36779;52.168;20.878;2023-02-19T04:51:26;99873.30;;;1.45;76.33
50682;BME280;36779;52.168;20.878;2023-02-19T04:53:55;99879.92;;;1.45;76.40
50682;BME280;36779;52.168;20.878;2023-02-19T04:56:23;99873.13;;;1.47;76.35
50682;BME280;36779;52.168;20.878;2023-02-19T04:58:52;99872.73;;;1.50;76.32
50682;BME280;36779;52.168;20.878;2023-02-19T05:01:22;99863.52;;;1.51;76.38
50682;BME280;36779;52.168;20.878;2023-02-19T05:03:54;99857.54;;;1.51;76.42
50682;BME280;36779;52.168;20.878;2023-02-19T05:06:23;99859.27;;;1.52;76.48
50682;BME280;36779;52.168;20.878;2023-02-19T05:08:55;99859.34;;;1.51;76.43
50682;BME280;36779;52.168;20.878;2023-02-19T05:11:24;99858.52;;;1.48;76.46
50682;BME280;36779;52.168;20.878;2023-02-19T05:13:55;99859.70;;;1.44;76.33
50682;BME280;36779;52.168;20.878;2023-02-19T05:16:27;99861.55;;;1.42;76.31
50682;BME280;36779;52.168;20.878;2023-02-19T05:18:58;99858.90;;;1.43;76.33
50682;BME280;36779;52.168;20.878;2023-02-19T05:21:27;99859.23;;;1.43;76.36
50682;BME280;36779;52.168;20.878;2023-02-19T05:23:58;99851.30;;;1.44;76.36
50682;BME280;36779;52.168;20.878;2023-02-19T05:26:26;99858.45;;;1.44;76.29
50682;BME280;36779;52.168;20.878;2023-02-19T05:29:00;99858.95;;;1.47;76.45
50682;BME280;36779;52.168;20.878;2023-02-19T05:31:28;99859.54;;;1.50;76.36
50682;BME280;36779;52.168;20.878;2023-02-19T05:33:58;99848.23;;;1.54;76.42
50682;BME280;36779;52.168;20.878;2023-02-19T05:36:27;99840.33;;;1.56;76.50
50682;BME280;36779;52.168;20.878;2023-02-19T05:38:59;99837.02;;;1.59;76.53
50682;BME280;36779;52.168;20.878;2023-02-19T05:41:28;99840.21;;;1.58;76.43
50682;BME280;36779;52.168;20.878;2023-02-19T05:43:58;99839.91;;;1.58;76.44
50682;BME280;36779;52.168;20.878;2023-02-19T05:46:28;99843.11;;;1.57;76.51
50682;BME280;36779;52.168;20.878;2023-02-19T05:48:58;99843.59;;;1.58;76.52
50682;BME280;36779;52.168;20.878;2023-02-19T05:51:29;99838.06;;;1.58;76.49
50682;BME280;36779;52.168;20.878;2023-02-19T05:54:00;99839.27;;;1.61;76.44
50682;BME280;36779;52.168;20.878;2023-02-19T05:56:34;99843.80;;;1.64;76.47
50682;BME280;36779;52.168;20.878;2023-02-19T05:59:09;99846.30;;;1.65;76.42
50682;BME280;36779;52.168;20.878;2023-02-19T06:01:41;99846.36;;;1.67;76.39
50682;BME280;36779;52.168;20.878;2023-02-19T06:04:11;99847.99;;;1.66;76.35
50682;BME280;36779;52.168;20.878;2023-02-19T06:06:41;99846.84;;;1.68;76.46
50682;BME280;36779;52.168;20.878;2023-02-19T06:09:13;99847.79;;;1.69;76.45
50682;BME280;36779;52.168;20.878;2023-02-19T06:11:42;99845.81;;;1.68;76.50
50682;BME280;36779;52.168;20.878;2023-02-19T06:14:13;99849.58;;;1.66;76.46
50682;BME280;36779;52.168;20.878;2023-02-19T06:16:42;99850.15;;;1.65;76.41
50682;BME280;36779;52.168;20.878;2023-02-19T06:19:12;99854.73;;;1.65;76.50
50682;BME280;36779;52.168;20.878;2023-02-19T06:21:43;99855.91;;;1.66;76.43
50682;BME280;36779;52.168;20.878;2023-02-19T06:24:12;99858.77;;;1.67;76.49
50682;BME280;36779;52.168;20.878;2023-02-19T06:26:41;99863.02;;;1.72;76.52
50682;BME280;36779;52.168;20.878;2023-02-19T06:29:12;99868.10;;;1.74;76.51
50682;BME280;36779;52.168;20.878;2023-02-19T06:31:42;99872.65;;;1.74;76.45
50682;BME280;36779;52.168;20.878;2023-02-19T06:34:12;99870.80;;;1.75;76.51
50682;BME280;36779;52.168;20.878;2023-02-19T06:36:41;99868.77;;;1.76;76.51
50682;BME280;36779;52.168;20.878;2023-02-19T06:39:10;99868.08;;;1.79;76.63
50682;BME280;36779;52.168;20.878;2023-02-19T06:41:39;99868.75;;;1.81;76.64
50682;BME280;36779;52.168;20.878;2023-02-19T06:44:08;99872.42;;;1.83;76.59
50682;BME280;36779;52.168;20.878;2023-02-19T06:46:42;99867.34;;;1.86;76.62
50682;BME280;36779;52.168;20.878;2023-02-19T06:49:11;99865.51;;;1.89;76.71
50682;BME280;36779;52.168;20.878;2023-02-19T06:51:40;99860.77;;;1.96;76.71
50682;BME280;36779;52.168;20.878;2023-02-19T06:54:09;99861.04;;;2.01;76.61
50682;BME280;36779;52.168;20.878;2023-02-19T06:56:39;99864.73;;;2.05;76.67
50682;BME280;36779;52.168;20.878;2023-02-19T06:59:10;99870.84;;;2.13;76.68
50682;BME280;36779;52.168;20.878;2023-02-19T07:01:41;99870.40;;;2.16;76.66
50682;BME280;36779;52.168;20.878;2023-02-19T07:04:10;99874.89;;;2.19;76.71
50682;BME280;36779;52.168;20.878;2023-02-19T07:06:40;99880.04;;;2.21;76.64
50682;BME280;36779;52.168;20.878;2023-02-19T07:09:10;99881.02;;;2.19;76.63
50682;BME280;36779;52.168;20.878;2023-02-19T07:11:39;99880.27;;;2.18;76.54
50682;BME280;36779;52.168;20.878;2023-02-19T07:14:13;99879.84;;;2.17;76.61
50682;BME280;36779;52.168;20.878;2023-02-19T07:16:42;99883.30;;;2.17;76.53
50682;BME280;36779;52.168;20.878;2023-02-19T07:19:12;99883.41;;;2.18;76.50
50682;BME280;36779;52.168;20.878;2023-02-19T07:21:45;99886.95;;;2.20;76.56
50682;BME280;36779;52.168;20.878;2023-02-19T07:24:14;99887.73;;;2.23;76.50
50682;BME280;36779;52.168;20.878;2023-02-19T07:26:44;99886.58;;;2.27;76.53
50682;BME280;36779;52.168;20.878;2023-02-19T07:29:13;99881.75;;;2.30;76.59
50682;BME280;36779;52.168;20.878;2023-02-19T07:31:42;99887.63;;;2.31;76.58
50682;BME280;36779;52.168;20.878;2023-02-19T07:34:12;99888.84;;;2.33;76.62
50682;BME280;36779;52.168;20.878;2023-02-19T07:36:41;99890.63;;;2.35;76.58
50682;BME280;36779;52.168;20.878;2023-02-19T07:39:12;99889.09;;;2.34;76.57
50682;BME280;36779;52.168;20.878;2023-02-19T07:41:41;99883.45;;;2.33;76.56
50682;BME280;36779;52.168;20.878;2023-02-19T07:44:11;99886.30;;;2.34;76.50
50682;BME280;36779;52.168;20.878;2023-02-19T07:46:44;99888.73;;;2.37;76.65
50682;BME280;36779;52.168;20.878;2023-02-19T07:49:19;99891.86;;;2.40;76.66
50682;BME280;36779;52.168;20.878;2023-02-19T07:51:49;99892.29;;;2.45;76.62
50682;BME280;36779;52.168;20.878;2023-02-19T07:54:23;99889.17;;;2.51;76.70
50682;BME280;36779;52.168;20.878;2023-02-19T07:56:53;99887.02;;;2.56;76.74
50682;BME280;36779;52.168;20.878;2023-02-19T07:59:22;99884.52;;;2.59;76.73
50682;BME280;36779;52.168;20.878;2023-02-19T08:01:51;99889.27;;;2.59;76.61
50682;BME280;36779;52.168;20.878;2023-02-19T08:04:39;99891.64;;;2.60;76.70
50682;BME280;36779;52.168;20.878;2023-02-19T08:07:08;99896.17;;;2.63;76.68
50682;BME280;36779;52.168;20.878;2023-02-19T08:09:36;99899.09;;;2.63;76.57
50682;BME280;36779;52.168;20.878;2023-02-19T08:12:08;99903.87;;;2.65;76.51
50682;BME280;36779;52.168;20.878;2023-02-19T08:14:57;99903.06;;;2.64;76.58
50682;BME280;36779;52.168;20.878;2023-02-19T08:17:26;99900.73;;;2.67;76.62
50682;BME280;36779;52.168;20.878;2023-02-19T08:19:57;99905.13;;;2.71;76.60
50682;BME280;36779;52.168;20.878;2023-02-19T08:22:26;99903.27;;;2.73;76.49
50682;BME280;36779;52.168;20.878;2023-02-19T08:24:57;99910.14;;;2.76;76.59
50682;BME280;36779;52.168;20.878;2023-02-19T08:27:26;99910.90;;;2.78;76.61
50682;BME280;36779;52.168;20.878;2023-02-19T08:29:56;99907.04;;;2.80;76.63
50682;BME280;36779;52.168;20.878;2023-02-19T08:32:25;99909.70;;;2.84;76.72
50682;BME280;36779;52.168;20.878;2023-02-19T08:34:55;99914.05;;;2.89;76.77
50682;BME280;36779;52.168;20.878;2023-02-19T08:37:25;99913.67;;;2.91;76.64
50682;BME280;36779;52.168;20.878;2023-02-19T08:39:55;99917.37;;;2.93;76.62
50682;BME280;36779;52.168;20.878;2023-02-19T08:42:24;99921.38;;;3.00;76.68
50682;BME280;36779;52.168;20.878;2023-02-19T08:44:54;99924.39;;;3.13;76.82
50682;BME280;36779;52.168;20.878;2023-02-19T08:47:24;99920.92;;;3.27;76.95
50682;BME280;36779;52.168;20.878;2023-02-19T08:50:00;99916.77;;;3.39;76.89
50682;BME280;36779;52.168;20.878;2023-02-19T08:52:29;99916.20;;;3.48;76.99
50682;BME280;36779;52.168;20.878;2023-02-19T08:54:59;99916.89;;;3.52;76.72
50682;BME280;36779;52.168;20.878;2023-02-19T08:57:28;99916.95;;;3.51;76.64
50682;BME280;36779;52.168;20.878;2023-02-19T08:59:57;99917.02;;;3.53;76.58
50682;BME280;36779;52.168;20.878;2023-02-19T09:02:26;99914.10;;;3.59;76.63
50682;BME280;36779;52.168;20.878;2023-02-19T09:04:57;99912.34;;;3.65;76.68
50682;BME280;36779;52.168;20.878;2023-02-19T09:07:26;99911.61;;;3.69;76.56
50682;BME280;36779;52.168;20.878;2023-02-19T09:09:56;99910.69;;;3.70;76.56
50682;BME280;36779;52.168;20.878;2023-02-19T09:12:25;99910.11;;;3.68;76.52
50682;BME280;36779;52.168;20.878;2023-02-19T09:14:55;99910.73;;;3.69;76.49
50682;BME280;36779;52.168;20.878;2023-02-19T09:17:23;99917.50;;;3.68;76.41
50682;BME280;36779;52.168;20.878;2023-02-19T09:19:53;99923.48;;;3.70;76.59
50682;BME280;36779;52.168;20.878;2023-02-19T09:22:22;99920.23;;;3.69;76.41
50682;BME280;36779;52.168;20.878;2023-02-19T09:24:50;99918.31;;;3.65;76.42
50682;BME280;36779;52.168;20.878;2023-02-19T09:27:21;99920.13;;;3.66;76.43
50682;BME280;36779;52.168;20.878;2023-02-19T09:29:50;99921.02;;;3.72;76.66
50682;BME280;36779;52.168;20.878;2023-02-19T09:32:18;99921.86;;;3.79;76.71
50682;BME280;36779;52.168;20.878;2023-02-19T09:34:48;99922.58;;;3.81;76.55
50682;BME280;36779;52.168;20.878;2023-02-19T09:37:16;99919.95;;;3.81;76.44
50682;BME280;36779;52.168;20.878;2023-02-19T09:39:45;99922.65;;;3.80;76.34
50682;BME280;36779;52.168;20.878;2023-02-19T09:42:16;99924.17;;;3.81;76.30
50682;BME280;36779;52.168;20.878;2023-02-19T09:44:48;99924.48;;;3.77;76.31
50682;BME280;36779;52.168;20.878;2023-02-19T09:47:19;99927.02;;;3.76;76.27
50682;BME280;36779;52.168;20.878;2023-02-19T09:49:50;99931.67;;;3.73;76.16
50682;BME280;36779;52.168;20.878;2023-02-19T09:52:29;99933.58;;;3.69;76.29
50682;BME280;36779;52.168;20.878;2023-02-19T09:55:02;99933.70;;;3.65;76.20
50682;BME280;36779;52.168;20.878;2023-02-19T09:57:34;99931.73;;;3.62;76.24
50682;BME280;36779;52.168;20.878;2023-02-19T10:00:11;99933.49;;;3.66;76.44
50682;BME280;36779;52.168;20.878;2023-02-19T10:02:42;99935.25;;;3.70;76.36
50682;BME280;36779;52.168;20.878;2023-02-19T10:05:12;99933.21;;;3.78;76.56
50682;BME280;36779;52.168;20.878;2023-02-19T10:07:44;99931.77;;;3.88;76.68
50682;BME280;36779;52.168;20.878;2023-02-19T10:10:23;99936.88;;;3.98;76.67
50682;BME280;36779;52.168;20.878;2023-02-19T10:12:55;99935.71;;;4.04;76.51
50682;BME280;36779;52.168;20.878;2023-02-19T10:15:30;99936.00;;;4.07;76.41
50682;BME280;36779;52.168;20.878;2023-02-19T10:18:02;99933.42;;;4.12;76.46
50682;BME280;36779;52.168;20.878;2023-02-19T10:20:32;99931.50;;;4.18;76.51
50682;BME280;36779;52.168;20.878;2023-02-19T10:23:03;99931.64;;;4.23;76.37
50682;BME280;36779;52.168;20.878;2023-02-19T10:25:34;99937.86;;;4.24;76.30
50682;BME280;36779;52.168;20.878;2023-02-19T10:28:03;99940.80;;;4.23;76.19
50682;BME280;36779;52.168;20.878;2023-02-19T10:30:34;99942.85;;;4.29;76.54
50682;BME280;36779;52.168;20.878;2023-02-19T10:33:08;99943.21;;;4.50;76.92
50682;BME280;36779;52.168;20.878;2023-02-19T10:35:49;99944.23;;;4.90;77.34
50682;BME280;36779;52.168;20.878;2023-02-19T10:38:20;99942.27;;;5.33;77.33
50682;BME280;36779;52.168;20.878;2023-02-19T10:40:55;99947.66;;;5.54;76.64
50682;BME280;36779;52.168;20.878;2023-02-19T10:43:26;99954.05;;;5.43;75.83
50682;BME280;36779;52.168;20.878;2023-02-19T10:46:04;99960.08;;;5.27;75.67
50682;BME280;36779;52.168;20.878;2023-02-19T10:48:44;99954.96;;;5.15;75.65
50682;BME280;36779;52.168;20.878;2023-02-19T10:51:14;99951.33;;;5.11;75.85
50682;BME280;36779;52.168;20.878;2023-02-19T10:53:50;99953.73;;;5.20;76.25
50682;BME280;36779;52.168;20.878;2023-02-19T10:56:24;99953.36;;;5.28;76.20
50682;BME280;36779;52.168;20.878;2023-02-19T10:58:55;99956.51;;;5.32;76.11
50682;BME280;36779;52.168;20.878;2023-02-19T11:01:53;99957.23;;;5.37;76.22
50682;BME280;36779;52.168;20.878;2023-02-19T11:04:23;99956.91;;;5.43;76.03
50682;BME280;36779;52.168;20.878;2023-02-19T11:06:56;99963.08;;;5.45;75.94
50682;BME280;36779;52.168;20.878;2023-02-19T11:09:29;99962.66;;;5.41;75.63
50682;BME280;36779;52.168;20.878;2023-02-19T11:12:01;99961.80;;;5.37;75.62
50682;BME280;36779;52.168;20.878;2023-02-19T11:14:33;99958.64;;;5.28;75.59
50682;BME280;36779;52.168;20.878;2023-02-19T11:17:03;99961.91;;;5.29;75.79
50682;BME280;36779;52.168;20.878;2023-02-19T11:19:36;99960.08;;;5.37;75.95
50682;BME280;36779;52.168;20.878;2023-02-19T11:22:23;99963.48;;;5.42;75.72
50682;BME280;36779;52.168;20.878;2023-02-19T11:25:01;99966.52;;;5.26;75.28
50682;BME280;36779;52.168;20.878;2023-02-19T11:27:32;99966.65;;;5.13;75.32
50682;BME280;36779;52.168;20.878;2023-02-19T11:30:34;99958.27;;;5.04;75.29
50682;BME280;36779;52.168;20.878;2023-02-19T11:33:27;99961.09;;;5.02;75.45
50682;BME280;36779;52.168;20.878;2023-02-19T11:36:27;99967.34;;;5.06;75.56
50682;BME280;36779;52.168;20.878;2023-02-19T11:39:01;99967.80;;;5.10;75.51
50682;BME280;36779;52.168;20.878;2023-02-19T11:41:52;99966.05;;;5.08;75.15
50682;BME280;36779;52.168;20.878;2023-02-19T11:44:30;99970.30;;;4.90;74.94
50682;BME280;36779;52.168;20.878;2023-02-19T11:47:22;99969.77;;;4.74;75.03
50682;BME280;36779;52.168;20.878;2023-02-19T11:50:00;99976.16;;;4.67;75.09
50682;BME280;36779;52.168;20.878;2023-02-19T11:52:36;99977.24;;;4.67;75.31
50682;BME280;36779;52.168;20.878;2023-02-19T11:55:15;99972.98;;;4.71;75.36
50682;BME280;36779;52.168;20.878;2023-02-19T11:57:50;99975.36;;;4.75;75.35
50682;BME280;36779;52.168;20.878;2023-02-19T12:00:27;99974.39;;;4.67;74.97
50682;BME280;36779;52.168;20.878;2023-02-19T12:03:28;99976.86;;;4.57;75.04
50682;BME280;36779;52.168;20.878;2023-02-19T12:06:08;99979.95;;;4.56;75.27
50682;BME280;36779;52.168;20.878;2023-02-19T12:09:00;99979.88;;;4.67;75.53
50682;BME280;36779;52.168;20.878;2023-02-19T12:14:59;99988.23;;;4.76;74.99
50682;BME280;36779;52.168;20.878;2023-02-19T12:17:48;99998.42;;;4.72;75.16
50682;BME280;36779;52.168;20.878;2023-02-19T12:20:28;99999.59;;;4.75;75.28
50682;BME280;36779;52.168;20.878;2023-02-19T12:23:14;100000.58;;;4.84;75.36
50682;BME280;36779;52.168;20.878;2023-02-19T12:25:54;100006.05;;;4.94;75.33
50682;BME280;36779;52.168;20.878;2023-02-19T12:28:51;100006.40;;;5.00;75.23
50682;BME280;36779;52.168;20.878;2023-02-19T12:32:12;100006.83;;;5.03;75.07
50682;BME280;36779;52.168;20.878;2023-02-19T12:37:43;100011.06;;;4.99;74.93
50682;BME280;36779;52.168;20.878;2023-02-19T12:40:29;100014.70;;;5.08;75.33
50682;BME280;36779;52.168;20.878;2023-02-19T12:43:12;100020.66;;;5.22;75.50
50682;BME280;36779;52.168;20.878;2023-02-19T12:45:46;100024.67;;;5.32;75.31
50682;BME280;36779;52.168;20.878;2023-02-19T12:48:25;100023.03;;;5.29;74.91
50682;BME280;36779;52.168;20.878;2023-02-19T12:51:00;100025.70;;;5.32;75.10
50682;BME280;36779;52.168;20.878;2023-02-19T12:53:36;100018.84;;;5.46;75.44
50682;BME280;36779;52.168;20.878;2023-02-19T12:56:11;100023.83;;;5.53;75.13
50682;BME280;36779;52.168;20.878;2023-02-19T12:58:44;100026.14;;;5.55;75.01
50682;BME280;36779;52.168;20.878;2023-02-19T13:01:18;100025.19;;;5.52;74.80
50682;BME280;36779;52.168;20.878;2023-02-19T13:03:52;100031.41;;;5.41;74.53
50682;BME280;36779;52.168;20.878;2023-02-19T13:06:32;100035.62;;;5.24;74.18
50682;BME280;36779;52.168;20.878;2023-02-19T13:09:09;100035.30;;;5.04;74.12
50682;BME280;36779;52.168;20.878;2023-02-19T13:11:44;100037.77;;;4.85;74.13
50682;BME280;36779;52.168;20.878;2023-02-19T13:14:20;100037.12;;;4.73;74.18
50682;BME280;36779;52.168;20.878;2023-02-19T13:16:56;100038.55;;;4.64;74.26
50682;BME280;36779;52.168;20.878;2023-02-19T13:19:28;100037.92;;;4.56;74.18
50682;BME280;36779;52.168;20.878;2023-02-19T13:22:04;100043.03;;;4.47;74.28
50682;BME280;36779;52.168;20.878;2023-02-19T13:24:57;100044.92;;;4.43;74.43
50682;BME280;36779;52.168;20.878;2023-02-19T13:27:39;100050.30;;;4.42;74.40
50682;BME280;36779;52.168;20.878;2023-02-19T13:30:23;100050.16;;;4.40;74.31
50682;BME280;36779;52.168;20.878;2023-02-19T13:33:03;100053.77;;;4.34;74.16
50682;BME280;36779;52.168;20.878;2023-02-19T13:35:57;100056.92;;;4.31;74.35
50682;BME280;36779;52.168;20.878;2023-02-19T13:38:36;100059.70;;;4.29;74.36
50682;BME280;36779;52.168;20.878;2023-02-19T13:41:05;100064.18;;;4.26;74.32
50682;BME280;36779;52.168;20.878;2023-02-19T13:43:44;100059.68;;;4.21;74.19